sensor_id;sensor_type;location;lat;lon;timestamp;pressure;altitude;pressure_sealevel;temperature;humidity
22283;BME280;11310;51.528;21.204;2023-04-08T00:01:17;100486.66;;;5.46;100.00
22283;BME280;11310;51.528;21.204;2023-04-08T00:03:46;100484.06;;;5.45;100.00
22283;BME280;11310;51.528;21.204;2023-04-08T00:06:15;100487.56;;;5.44;100.00
22283;BME280;11310;51.528;21.204;2023-04-08T00:08:45;100485.91;;;5.40;100.00
22283;BME280;11310;51.528;21.204;2023-04-08T00:11:14;100492.03;;;5.36;100.00
22283;BME280;11310;51.528;21.204;2023-04-08T00:13:43;100492.06;;;5.33;100.00
22283;BME280;11310;51.528;21.204;2023-04-08T00:16:12;100494.72;;;5.31;100.00
22283;BME280;11310;51.528;21.204;2023-04-08T00:18:41;100494.69;;;5.33;100.00
22283;BME280;11310;51.528;21.204;2023-04-08T00:21:09;100490.31;;;5.35;100.00
22283;BME280;11310;51.528;21.204;2023-04-08T00:23:38;100492.91;;;5.36;100.00
22283;BME280;11310;51.528;21.204;2023-04-08T00:26:08;100491.16;;;5.37;100.00
22283;BME280;11310;51.528;21.204;2023-04-08T00:28:37;100489.44;;;5.36;100.00
22283;BME280;11310;51.528;21.204;2023-04-08T00:31:07;100489.38;;;5.39;100.00
22283;BME280;11310;51.528;21.204;2023-04-08T00:33:36;100488.53;;;5.38;100.00
22283;BME280;11310;51.528;21.204;2023-04-08T00:36:05;100489.38;;;5.39;100.00
22283;BME280;11310;51.528;21.204;2023-04-08T00:38:33;100493.69;;;5.40;100.00
22283;BME280;11310;51.528;21.204;2023-04-08T00:41:02;100492.00;;;5.39;100.00
22283;BME280;11310;51.528;21.204;2023-04-08T00:43:32;100492.94;;;5.35;100.00
22283;BME280;11310;51.528;21.204;2023-04-08T00:46:01;100490.31;;;5.35;100.00
22283;BME280;11310;51.528;21.204;2023-04-08T00:48:30;100496.41;;;5.34;100.00
22283;BME280;11310;51.528;21.204;2023-04-08T00:50:58;100499.03;;;5.32;100.00
22283;BME280;11310;51.528;21.204;2023-04-08T00:53:30;100501.75;;;5.26;100.00
22283;BME280;11310;51.528;21.204;2023-04-08T00:55:58;100498.44;;;5.17;100.00
22283;BME280;11310;51.528;21.204;2023-04-08T00:58:28;100499.47;;;5.07;100.00
22283;BME280;11310;51.528;21.204;2023-04-08T01:01:04;100500.53;;;4.97;100.00
22283;BME280;11310;51.528;21.204;2023-04-08T01:03:41;100505.13;;;4.78;100.00
22283;BME280;11310;51.528;21.204;2023-04-08T01:06:15;100498.47;;;4.61;100.00
22283;BME280;11310;51.528;21.204;2023-04-08T01:08:45;100502.13;;;4.48;100.00
22283;BME280;11310;51.528;21.204;2023-04-08T01:11:16;100504.00;;;4.37;100.00
22283;BME280;11310;51.528;21.204;2023-04-08T01:13:48;100506.75;;;4.26;100.00
22283;BME280;11310;51.528;21.204;2023-04-08T01:16:23;100506.00;;;4.17;100.00
22283;BME280;11310;51.528;21.204;2023-04-08T01:18:53;100510.47;;;4.06;100.00
22283;BME280;11310;51.528;21.204;2023-04-08T01:21:23;100509.75;;;3.93;100.00
22283;BME280;11310;51.528;21.204;2023-04-08T01:23:59;100513.31;;;3.85;100.00
22283;BME280;11310;51.528;21.204;2023-04-08T01:26:30;100518.59;;;3.74;100.00
22283;BME280;11310;51.528;21.204;2023-04-08T01:29:00;100512.69;;;3.65;100.00
22283;BME280;11310;51.528;21.204;2023-04-08T01:31:30;100516.25;;;3.55;100.00
22283;BME280;11310;51.528;21.204;2023-04-08T01:34:00;100518.88;;;3.47;100.00
22283;BME280;11310;51.528;21.204;2023-04-08T01:36:31;100529.34;;;3.40;100.00
22283;BME280;11310;51.528;21.204;2023-04-08T01:39:02;100523.38;;;3.32;100.00
22283;BME280;11310;51.528;21.204;2023-04-08T01:41:35;100527.75;;;3.25;100.00
22283;BME280;11310;51.528;21.204;2023-04-08T01:44:05;100527.78;;;3.19;100.00
22283;BME280;11310;51.528;21.204;2023-04-08T01:46:34;100530.44;;;3.12;100.00
22283;BME280;11310;51.528;21.204;2023-04-08T01:49:04;100529.66;;;3.04;100.00
22283;BME280;11310;51.528;21.204;2023-04-08T01:51:35;100536.59;;;2.97;100.00
22283;BME280;11310;51.528;21.204;2023-04-08T01:54:04;100535.81;;;2.91;100.00
22283;BME280;11310;51.528;21.204;2023-04-08T01:56:38;100530.66;;;2.88;100.00
22283;BME280;11310;51.528;21.204;2023-04-08T01:59:10;100541.88;;;2.87;100.00
22283;BME280;11310;51.528;21.204;2023-04-08T02:01:43;100537.59;;;2.83;100.00
22283;BME280;11310;51.528;21.204;2023-04-08T02:04:12;100539.31;;;2.81;100.00
22283;BME280;11310;51.528;21.204;2023-04-08T02:06:44;100535.00;;;2.78;100.00
22283;BME280;11310;51.528;21.204;2023-04-08T02:09:13;100538.47;;;2.76;100.00
22283;BME280;11310;51.528;21.204;2023-04-08T02:11:43;100538.50;;;2.74;100.00
22283;BME280;11310;51.528;21.204;2023-04-08T02:14:12;100542.84;;;2.72;100.00
22283;BME280;11310;51.528;21.204;2023-04-08T02:16:45;100546.31;;;2.70;100.00
22283;BME280;11310;51.528;21.204;2023-04-08T02:19:23;100552.38;;;2.66;100.00
22283;BME280;11310;51.528;21.204;2023-04-08T02:21:56;100555.84;;;2.66;100.00
22283;BME280;11310;51.528;21.204;2023-04-08T02:24:28;100558.38;;;2.71;100.00
22283;BME280;11310;51.528;21.204;2023-04-08T02:26:59;100560.06;;;2.79;100.00
22283;BME280;11310;51.528;21.204;2023-04-08T02:29:30;100556.56;;;2.86;100.00
22283;BME280;11310;51.528;21.204;2023-04-08T02:32:01;100559.09;;;2.94;100.00
22283;BME280;11310;51.528;21.204;2023-04-08T02:34:31;100563.38;;;3.01;100.00
22283;BME280;11310;51.528;21.204;2023-04-08T02:37:01;100556.44;;;3.03;100.00
22283;BME280;11310;51.528;21.204;2023-04-08T02:39:31;100565.06;;;3.05;100.00
22283;BME280;11310;51.528;21.204;2023-04-08T02:42:03;100564.19;;;3.06;100.00
22283;BME280;11310;51.528;21.204;2023-04-08T02:44:31;100567.66;;;3.03;100.00
22283;BME280;11310;51.528;21.204;2023-04-08T02:47:02;100566.84;;;3.00;100.00
22283;BME280;11310;51.528;21.204;2023-04-08T02:49:34;100567.69;;;3.00;100.00
22283;BME280;11310;51.528;21.204;2023-04-08T02:52:03;100565.97;;;2.99;100.00
22283;BME280;11310;51.528;21.204;2023-04-08T02:54:31;100558.19;;;2.98;100.00
22283;BME280;11310;51.528;21.204;2023-04-08T02:57:01;100554.72;;;2.99;100.00
22283;BME280;11310;51.528;21.204;2023-04-08T02:59:30;100561.66;;;2.97;100.00
22283;BME280;11310;51.528;21.204;2023-04-08T03:01:58;100565.97;;;2.96;100.00
22283;BME280;11310;51.528;21.204;2023-04-08T03:04:27;100565.97;;;2.98;100.00
22283;BME280;11310;51.528;21.204;2023-04-08T03:06:56;100564.25;;;3.00;100.00
22283;BME280;11310;51.528;21.204;2023-04-08T03:09:24;100560.72;;;3.05;100.00
22283;BME280;11310;51.528;21.204;2023-04-08T03:11:53;100570.25;;;3.05;100.00
22283;BME280;11310;51.528;21.204;2023-04-08T03:14:23;100565.03;;;3.08;100.00
22283;BME280;11310;51.528;21.204;2023-04-08T03:16:51;100559.00;;;3.06;100.00
22283;BME280;11310;51.528;21.204;2023-04-08T03:19:20;100569.44;;;3.00;100.00
22283;BME280;11310;51.528;21.204;2023-04-08T03:21:48;100563.38;;;2.96;100.00
22283;BME280;11310;51.528;21.204;2023-04-08T03:24:17;100565.16;;;2.93;100.00
22283;BME280;11310;51.528;21.204;2023-04-08T03:26:45;100561.75;;;2.85;100.00
22283;BME280;11310;51.528;21.204;2023-04-08T03:29:13;100562.66;;;2.78;100.00
22283;BME280;11310;51.528;21.204;2023-04-08T03:31:44;100572.22;;;2.68;100.00
22283;BME280;11310;51.528;21.204;2023-04-08T03:34:13;100572.25;;;2.62;100.00
22283;BME280;11310;51.528;21.204;2023-04-08T03:36:42;100574.00;;;2.57;100.00
22283;BME280;11310;51.528;21.204;2023-04-08T03:39:10;100575.72;;;2.54;100.00
22283;BME280;11310;51.528;21.204;2023-04-08T03:41:38;100582.66;;;2.52;100.00
22283;BME280;11310;51.528;21.204;2023-04-08T03:44:07;100581.81;;;2.47;100.00
22283;BME280;11310;51.528;21.204;2023-04-08T03:46:36;100585.28;;;2.43;100.00
22283;BME280;11310;51.528;21.204;2023-04-08T03:49:06;100585.31;;;2.38;100.00
22283;BME280;11310;51.528;21.204;2023-04-08T03:51:35;100574.13;;;2.32;100.00
22283;BME280;11310;51.528;21.204;2023-04-08T03:54:03;100583.66;;;2.27;100.00
22283;BME280;11310;51.528;21.204;2023-04-08T03:56:34;100587.94;;;2.22;100.00
22283;BME280;11310;51.528;21.204;2023-04-08T03:59:02;100584.53;;;2.20;100.00
22283;BME280;11310;51.528;21.204;2023-04-08T04:01:31;100588.84;;;2.18;100.00
22283;BME280;11310;51.528;21.204;2023-04-08T04:03:59;100593.16;;;2.16;100.00
22283;BME280;11310;51.528;21.204;2023-04-08T04:06:30;100594.03;;;2.12;100.00
22283;BME280;11310;51.528;21.204;2023-04-08T04:08:59;100599.22;;;2.07;100.00
22283;BME280;11310;51.528;21.204;2023-04-08T04:11:27;100598.38;;;2.10;100.00
22283;BME280;11310;51.528;21.204;2023-04-08T04:13:56;100610.44;;;2.11;100.00
22283;BME280;11310;51.528;21.204;2023-04-08T04:16:24;100609.59;;;2.07;100.00
22283;BME280;11310;51.528;21.204;2023-04-08T04:18:53;100608.75;;;2.04;100.00
22283;BME280;11310;51.528;21.204;2023-04-08T04:21:21;100607.03;;;2.00;100.00
22283;BME280;11310;51.528;21.204;2023-04-08T04:23:52;100612.16;;;2.01;100.00
22283;BME280;11310;51.528;21.204;2023-04-08T04:26:20;100610.47;;;1.97;100.00
22283;BME280;11310;51.528;21.204;2023-04-08T04:28:49;100615.66;;;1.96;100.00
22283;BME280;11310;51.528;21.204;2023-04-08T04:31:18;100615.66;;;1.96;100.00
22283;BME280;11310;51.528;21.204;2023-04-08T04:33:48;100623.41;;;1.97;100.00
22283;BME280;11310;51.528;21.204;2023-04-08T04:36:17;100630.31;;;1.98;100.00
22283;BME280;11310;51.528;21.204;2023-04-08T04:38:46;100622.53;;;1.97;100.00
22283;BME280;11310;51.528;21.204;2023-04-08T04:41:18;100624.25;;;1.99;100.00
22283;BME280;11310;51.528;21.204;2023-04-08T04:43:48;100625.97;;;2.03;100.00
22283;BME280;11310;51.528;21.204;2023-04-08T04:46:17;100633.75;;;2.05;100.00
22283;BME280;11310;51.528;21.204;2023-04-08T04:48:46;100627.69;;;2.06;100.00
22283;BME280;11310;51.528;21.204;2023-04-08T04:51:15;100627.66;;;2.12;100.00
22283;BME280;11310;51.528;21.204;2023-04-08T04:53:45;100632.84;;;2.12;100.00
22283;BME280;11310;51.528;21.204;2023-04-08T04:56:14;100644.03;;;2.17;100.00
22283;BME280;11310;51.528;21.204;2023-04-08T04:58:44;100644.88;;;2.25;100.00
22283;BME280;11310;51.528;21.204;2023-04-08T05:01:12;100650.91;;;2.31;100.00
22283;BME280;11310;51.528;21.204;2023-04-08T05:03:42;100655.19;;;2.41;100.00
22283;BME280;11310;51.528;21.204;2023-04-08T05:06:11;100656.03;;;2.51;100.00
22283;BME280;11310;51.528;21.204;2023-04-08T05:08:39;100659.47;;;2.59;100.00
22283;BME280;11310;51.528;21.204;2023-04-08T05:11:08;100656.84;;;2.63;100.00
22283;BME280;11310;51.528;21.204;2023-04-08T05:13:37;100659.38;;;2.72;100.00
22283;BME280;11310;51.528;21.204;2023-04-08T05:16:07;100662.81;;;2.82;100.00
22283;BME280;11310;51.528;21.204;2023-04-08T05:18:36;100661.91;;;2.86;100.00
22283;BME280;11310;51.528;21.204;2023-04-08T05:21:05;100665.34;;;2.91;100.00
22283;BME280;11310;51.528;21.204;2023-04-08T05:23:35;100667.06;;;2.92;100.00
22283;BME280;11310;51.528;21.204;2023-04-08T05:26:06;100673.09;;;2.94;100.00
22283;BME280;11310;51.528;21.204;2023-04-08T05:28:35;100673.09;;;2.98;100.00
22283;BME280;11310;51.528;21.204;2023-04-08T05:31:03;100671.31;;;3.05;100.00
22283;BME280;11310;51.528;21.204;2023-04-08T05:33:34;100678.19;;;3.09;100.00
22283;BME280;11310;51.528;21.204;2023-04-08T05:36:03;100675.59;;;3.15;100.00
22283;BME280;11310;51.528;21.204;2023-04-08T05:38:32;100676.41;;;3.18;100.00
22283;BME280;11310;51.528;21.204;2023-04-08T05:41:01;100680.69;;;3.27;100.00
22283;BME280;11310;51.528;21.204;2023-04-08T05:43:31;100682.38;;;3.35;100.00
22283;BME280;11310;51.528;21.204;2023-04-08T05:46:05;100684.00;;;3.47;100.00
22283;BME280;11310;51.528;21.204;2023-04-08T05:48:35;100683.91;;;3.59;100.00
22283;BME280;11310;51.528;21.204;2023-04-08T05:51:05;100683.00;;;3.66;100.00
22283;BME280;11310;51.528;21.204;2023-04-08T05:53:33;100678.63;;;3.74;100.00
22283;BME280;11310;51.528;21.204;2023-04-08T05:56:03;100678.56;;;3.80;100.00
22283;BME280;11310;51.528;21.204;2023-04-08T05:58:32;100686.28;;;3.87;100.00
22283;BME280;11310;51.528;21.204;2023-04-08T06:01:01;100694.03;;;3.92;100.00
22283;BME280;11310;51.528;21.204;2023-04-08T06:03:30;100689.66;;;3.98;100.00
22283;BME280;11310;51.528;21.204;2023-04-08T06:06:00;100691.28;;;4.07;100.00
22283;BME280;11310;51.528;21.204;2023-04-08T06:08:29;100697.22;;;4.18;100.00
22283;BME280;11310;51.528;21.204;2023-04-08T06:10:58;100700.53;;;4.35;100.00
22283;BME280;11310;51.528;21.204;2023-04-08T06:13:27;100701.22;;;4.52;100.00
22283;BME280;11310;51.528;21.204;2023-04-08T06:15:56;100701.81;;;4.75;100.00
22283;BME280;11310;51.528;21.204;2023-04-08T06:18:24;100692.97;;;4.89;100.00
22283;BME280;11310;51.528;21.204;2023-04-08T06:20:53;100704.03;;;5.05;100.00
22283;BME280;11310;51.528;21.204;2023-04-08T06:23:23;100709.97;;;5.16;100.00
22283;BME280;11310;51.528;21.204;2023-04-08T06:25:52;100715.88;;;5.27;100.00
22283;BME280;11310;51.528;21.204;2023-04-08T06:28:21;100712.34;;;5.31;100.00
22283;BME280;11310;51.528;21.204;2023-04-08T06:30:50;100717.44;;;5.38;100.00
22283;BME280;11310;51.528;21.204;2023-04-08T06:33:20;100716.53;;;5.42;100.00
22283;BME280;11310;51.528;21.204;2023-04-08T06:35:49;100719.91;;;5.49;100.00
22283;BME280;11310;51.528;21.204;2023-04-08T06:38:17;100712.78;;;5.60;100.00
22283;BME280;11310;51.528;21.204;2023-04-08T06:40:48;100716.00;;;5.75;100.00
22283;BME280;11310;51.528;21.204;2023-04-08T06:43:16;100712.38;;;5.87;100.00
22283;BME280;11310;51.528;21.204;2023-04-08T06:45:45;100719.13;;;5.98;100.00
22283;BME280;11310;51.528;21.204;2023-04-08T06:48:14;100718.84;;;6.15;100.00
22283;BME280;11310;51.528;21.204;2023-04-08T06:50:43;100725.50;;;6.34;100.00
22283;BME280;11310;51.528;21.204;2023-04-08T06:53:11;100731.25;;;6.49;100.00
22283;BME280;11310;51.528;21.204;2023-04-08T06:55:40;100732.00;;;6.56;100.00
22283;BME280;11310;51.528;21.204;2023-04-08T06:58:11;100736.19;;;6.66;100.00
22283;BME280;11310;51.528;21.204;2023-04-08T07:00:41;100731.56;;;6.80;100.00
22283;BME280;11310;51.528;21.204;2023-04-08T07:03:10;100731.25;;;6.95;100.00
22283;BME280;11310;51.528;21.204;2023-04-08T07:05:39;100732.59;;;7.14;100.00
22283;BME280;11310;51.528;21.204;2023-04-08T07:08:09;100728.78;;;7.30;100.00
22283;BME280;11310;51.528;21.204;2023-04-08T07:10:38;100737.16;;;7.44;100.00
22283;BME280;11310;51.528;21.204;2023-04-08T07:13:07;100739.47;;;7.57;100.00
22283;BME280;11310;51.528;21.204;2023-04-08T07:15:37;100733.88;;;7.72;100.00
22283;BME280;11310;51.528;21.204;2023-04-08T07:18:06;100728.34;;;7.86;100.00
22283;BME280;11310;51.528;21.204;2023-04-08T07:20:34;100738.41;;;8.01;100.00
22283;BME280;11310;51.528;21.204;2023-04-08T07:23:04;100731.09;;;8.15;100.00
22283;BME280;11310;51.528;21.204;2023-04-08T07:25:33;100733.03;;;8.42;100.00
22283;BME280;11310;51.528;21.204;2023-04-08T07:28:03;100734.19;;;8.64;100.00
22283;BME280;11310;51.528;21.204;2023-04-08T07:30:33;100739.00;;;8.79;100.00
22283;BME280;11310;51.528;21.204;2023-04-08T07:33:04;100729.75;;;8.98;100.00
22283;BME280;11310;51.528;21.204;2023-04-08T07:35:33;100734.38;;;9.19;100.00
22283;BME280;11310;51.528;21.204;2023-04-08T07:38:02;100735.53;;;9.38;100.00
22283;BME280;11310;51.528;21.204;2023-04-08T07:40:30;100730.56;;;9.58;100.00
22283;BME280;11310;51.528;21.204;2023-04-08T07:42:59;100735.94;;;9.81;100.00
22283;BME280;11310;51.528;21.204;2023-04-08T07:45:28;100735.47;;;9.96;100.00
22283;BME280;11310;51.528;21.204;2023-04-08T07:47:57;100729.72;;;10.12;100.00
22283;BME280;11310;51.528;21.204;2023-04-08T07:50:27;100731.81;;;10.27;100.00
22283;BME280;11310;51.528;21.204;2023-04-08T07:52:56;100735.69;;;10.42;100.00
22283;BME280;11310;51.528;21.204;2023-04-08T07:55:25;100734.19;;;10.59;100.00
22283;BME280;11310;51.528;21.204;2023-04-08T07:57:54;100733.72;;;10.73;100.00
22283;BME280;11310;51.528;21.204;2023-04-08T08:00:23;100741.63;;;10.96;100.00
22283;BME280;11310;51.528;21.204;2023-04-08T08:02:52;100735.88;;;11.09;100.00
22283;BME280;11310;51.528;21.204;2023-04-08T08:05:21;100745.34;;;10.90;100.00
22283;BME280;11310;51.528;21.204;2023-04-08T08:07:51;100747.03;;;10.91;100.00
22283;BME280;11310;51.528;21.204;2023-04-08T08:10:20;100735.09;;;11.07;100.00
22283;BME280;11310;51.528;21.204;2023-04-08T08:12:49;100738.19;;;11.40;100.00
22283;BME280;11310;51.528;21.204;2023-04-08T08:15:17;100735.28;;;11.70;98.91
22283;BME280;11310;51.528;21.204;2023-04-08T08:17:46;100748.31;;;11.95;97.23
22283;BME280;11310;51.528;21.204;2023-04-08T08:20:15;100746.66;;;12.14;96.14
22283;BME280;11310;51.528;21.204;2023-04-08T08:22:44;100738.81;;;12.34;95.56
22283;BME280;11310;51.528;21.204;2023-04-08T08:25:25;100746.47;;;12.60;95.50
22283;BME280;11310;51.528;21.204;2023-04-08T08:27:54;100750.38;;;12.90;95.52
22283;BME280;11310;51.528;21.204;2023-04-08T08:30:23;100736.31;;;13.11;92.40
22283;BME280;11310;51.528;21.204;2023-04-08T08:32:52;100741.59;;;13.11;93.28
22283;BME280;11310;51.528;21.204;2023-04-08T08:35:23;100743.28;;;12.92;91.80
22283;BME280;11310;51.528;21.204;2023-04-08T08:37:53;100734.72;;;12.87;94.85
22283;BME280;11310;51.528;21.204;2023-04-08T08:40:22;100746.03;;;13.09;94.02
22283;BME280;11310;51.528;21.204;2023-04-08T08:42:52;100740.97;;;13.43;92.10
22283;BME280;11310;51.528;21.204;2023-04-08T08:45:21;100736.25;;;13.68;90.83
22283;BME280;11310;51.528;21.204;2023-04-08T08:47:51;100737.94;;;13.88;91.79
22283;BME280;11310;51.528;21.204;2023-04-08T08:50:20;100736.75;;;14.30;89.41
22283;BME280;11310;51.528;21.204;2023-04-08T08:52:51;100733.19;;;14.48;89.17
22283;BME280;11310;51.528;21.204;2023-04-08T08:55:21;100742.41;;;14.74;88.65
22283;BME280;11310;51.528;21.204;2023-04-08T08:57:54;100738.22;;;14.87;85.72
22283;BME280;11310;51.528;21.204;2023-04-08T09:00:30;100740.47;;;14.77;85.98
22283;BME280;11310;51.528;21.204;2023-04-08T09:03:15;100736.84;;;14.95;84.54
22283;BME280;11310;51.528;21.204;2023-04-08T09:05:49;100737.81;;;14.77;84.06
22283;BME280;11310;51.528;21.204;2023-04-08T09:08:28;100735.16;;;14.94;86.35
22283;BME280;11310;51.528;21.204;2023-04-08T09:11:13;100735.63;;;15.50;82.15
22283;BME280;11310;51.528;21.204;2023-04-08T09:13:44;100735.97;;;15.75;84.28
22283;BME280;11310;51.528;21.204;2023-04-08T09:16:15;100742.19;;;16.05;83.07
22283;BME280;11310;51.528;21.204;2023-04-08T09:18:46;100743.16;;;16.04;81.37
22283;BME280;11310;51.528;21.204;2023-04-08T09:21:16;100740.41;;;16.06;81.73
22283;BME280;11310;51.528;21.204;2023-04-08T09:23:46;100743.00;;;15.76;83.09
22283;BME280;11310;51.528;21.204;2023-04-08T09:26:18;100745.94;;;15.55;84.38
22283;BME280;11310;51.528;21.204;2023-04-08T09:29:01;100755.09;;;15.96;82.14
22283;BME280;11310;51.528;21.204;2023-04-08T09:31:53;100755.53;;;16.04;80.30
22283;BME280;11310;51.528;21.204;2023-04-08T09:34:24;100750.16;;;15.74;81.63
22283;BME280;11310;51.528;21.204;2023-04-08T09:36:54;100748.78;;;15.02;84.89
22283;BME280;11310;51.528;21.204;2023-04-08T09:39:23;100747.22;;;14.83;86.74
22283;BME280;11310;51.528;21.204;2023-04-08T09:41:53;100742.47;;;15.22;84.49
22283;BME280;11310;51.528;21.204;2023-04-08T09:44:30;100756.31;;;15.90;84.18
22283;BME280;11310;51.528;21.204;2023-04-08T09:47:07;100747.94;;;16.58;77.35
22283;BME280;11310;51.528;21.204;2023-04-08T09:49:37;100748.19;;;16.97;75.64
22283;BME280;11310;51.528;21.204;2023-04-08T09:52:10;100751.25;;;17.19;75.02
22283;BME280;11310;51.528;21.204;2023-04-08T09:54:48;100748.19;;;16.97;71.46
22283;BME280;11310;51.528;21.204;2023-04-08T09:57:28;100747.16;;;17.00;72.86
22283;BME280;11310;51.528;21.204;2023-04-08T10:00:04;100751.06;;;17.08;72.56
22283;BME280;11310;51.528;21.204;2023-04-08T10:02:50;100746.41;;;17.68;70.88
22283;BME280;11310;51.528;21.204;2023-04-08T10:05:23;100745.59;;;17.94;70.25
22283;BME280;11310;51.528;21.204;2023-04-08T10:07:52;100745.66;;;18.06;70.79
22283;BME280;11310;51.528;21.204;2023-04-08T10:10:24;100743.66;;;18.36;70.48
22283;BME280;11310;51.528;21.204;2023-04-08T10:12:53;100740.53;;;18.30;68.68
22283;BME280;11310;51.528;21.204;2023-04-08T10:15:28;100738.63;;;18.05;67.97
22283;BME280;11310;51.528;21.204;2023-04-08T10:18:30;100741.66;;;17.99;62.59
22283;BME280;11310;51.528;21.204;2023-04-08T10:21:03;100733.81;;;18.51;69.44
22283;BME280;11310;51.528;21.204;2023-04-08T10:24:00;100738.13;;;19.03;61.87
22283;BME280;11310;51.528;21.204;2023-04-08T10:26:34;100731.97;;;19.28;66.12
22283;BME280;11310;51.528;21.204;2023-04-08T10:32:26;100730.09;;;19.66;62.29
22283;BME280;11310;51.528;21.204;2023-04-08T10:34:56;100732.63;;;20.03;64.03
22283;BME280;11310;51.528;21.204;2023-04-08T10:37:25;100726.44;;;20.15;63.41
22283;BME280;11310;51.528;21.204;2023-04-08T10:39:58;100727.63;;;20.11;61.30
22283;BME280;11310;51.528;21.204;2023-04-08T10:42:27;100729.81;;;20.17;63.20
22283;BME280;11310;51.528;21.204;2023-04-08T10:44:59;100725.25;;;20.19;60.70
22283;BME280;11310;51.528;21.204;2023-04-08T10:47:31;100722.53;;;19.96;59.40
22283;BME280;11310;51.528;21.204;2023-04-08T10:50:00;100725.81;;;19.99;64.06
22283;BME280;11310;51.528;21.204;2023-04-08T10:52:29;100714.69;;;20.18;61.90
22283;BME280;11310;51.528;21.204;2023-04-08T10:54:59;100717.63;;;20.02;63.18
22283;BME280;11310;51.528;21.204;2023-04-08T10:57:28;100720.19;;;19.68;61.52
22283;BME280;11310;51.528;21.204;2023-04-08T10:59:58;100718.66;;;19.28;64.96
22283;BME280;11310;51.528;21.204;2023-04-08T11:02:32;100721.31;;;19.28;59.70
22283;BME280;11310;51.528;21.204;2023-04-08T11:05:01;100711.53;;;19.41;63.72
22283;BME280;11310;51.528;21.204;2023-04-08T11:07:31;100709.34;;;19.58;64.19
22283;BME280;11310;51.528;21.204;2023-04-08T11:10:02;100711.47;;;19.53;62.45
22283;BME280;11310;51.528;21.204;2023-04-08T11:12:31;100713.44;;;19.26;63.15
22283;BME280;11310;51.528;21.204;2023-04-08T11:15:00;100704.91;;;19.21;62.88
22283;BME280;11310;51.528;21.204;2023-04-08T11:17:32;100707.03;;;19.41;61.82
22283;BME280;11310;51.528;21.204;2023-04-08T11:20:04;100707.84;;;19.54;60.78
22283;BME280;11310;51.528;21.204;2023-04-08T11:22:34;100708.38;;;19.59;59.09
22283;BME280;11310;51.528;21.204;2023-04-08T11:25:04;100699.44;;;19.60;62.18
22283;BME280;11310;51.528;21.204;2023-04-08T11:27:35;100704.69;;;19.85;60.32
22283;BME280;11310;51.528;21.204;2023-04-08T11:30:06;100706.84;;;20.27;59.25
22283;BME280;11310;51.528;21.204;2023-04-08T11:32:37;100710.78;;;20.34;58.06
22283;BME280;11310;51.528;21.204;2023-04-08T11:35:07;100712.97;;;20.40;58.32
22283;BME280;11310;51.528;21.204;2023-04-08T11:37:37;100703.56;;;20.47;58.79
22283;BME280;11310;51.528;21.204;2023-04-08T11:40:07;100703.13;;;20.75;57.74
22283;BME280;11310;51.528;21.204;2023-04-08T11:42:38;100703.16;;;20.86;57.37
22283;BME280;11310;51.528;21.204;2023-04-08T11:45:10;100698.22;;;20.93;55.12
22283;BME280;11310;51.528;21.204;2023-04-08T11:47:41;100694.91;;;20.89;54.74
22283;BME280;11310;51.528;21.204;2023-04-08T11:50:11;100695.41;;;20.83;55.03
22283;BME280;11310;51.528;21.204;2023-04-08T11:52:44;100697.81;;;20.75;55.29
22283;BME280;11310;51.528;21.204;2023-04-08T11:55:22;100695.44;;;20.95;53.34
22283;BME280;11310;51.528;21.204;2023-04-08T11:57:51;100701.50;;;21.08;55.17
22283;BME280;11310;51.528;21.204;2023-04-08T12:00:21;100690.25;;;21.04;55.05
22283;BME280;11310;51.528;21.204;2023-04-08T12:02:51;100687.91;;;21.00;54.48
22283;BME280;11310;51.528;21.204;2023-04-08T12:05:21;100693.84;;;21.03;54.66
22283;BME280;11310;51.528;21.204;2023-04-08T12:07:49;100680.53;;;21.14;54.21
22283;BME280;11310;51.528;21.204;2023-04-08T12:10:18;100687.91;;;21.33;53.05
22283;BME280;11310;51.528;21.204;2023-04-08T12:12:47;100695.47;;;21.17;53.74
22283;BME280;11310;51.528;21.204;2023-04-08T12:15:16;100682.34;;;21.03;54.17
22283;BME280;11310;51.528;21.204;2023-04-08T12:17:45;100687.47;;;20.71;54.37
22283;BME280;11310;51.528;21.204;2023-04-08T12:20:15;100687.41;;;20.83;54.04
22283;BME280;11310;51.528;21.204;2023-04-08T12:22:45;100679.91;;;21.00;53.24
22283;BME280;11310;51.528;21.204;2023-04-08T12:25:14;100674.94;;;21.06;53.74
22283;BME280;11310;51.528;21.204;2023-04-08T12:27:44;100670.06;;;21.22;52.03
22283;BME280;11310;51.528;21.204;2023-04-08T12:30:13;100669.22;;;21.11;53.37
22283;BME280;11310;51.528;21.204;2023-04-08T12:32:43;100664.59;;;21.46;53.94
22283;BME280;11310;51.528;21.204;2023-04-08T12:35:12;100664.56;;;21.79;51.15
22283;BME280;11310;51.528;21.204;2023-04-08T12:37:42;100666.56;;;21.11;51.73
22283;BME280;11310;51.528;21.204;2023-04-08T12:40:12;100664.09;;;20.85;52.84
22283;BME280;11310;51.528;21.204;2023-04-08T12:42:41;100663.47;;;20.60;52.44
22283;BME280;11310;51.528;21.204;2023-04-08T12:45:10;100662.09;;;20.54;53.13
22283;BME280;11310;51.528;21.204;2023-04-08T12:47:39;100658.63;;;20.19;54.18
22283;BME280;11310;51.528;21.204;2023-04-08T12:50:09;100650.41;;;19.99;54.81
22283;BME280;11310;51.528;21.204;2023-04-08T12:52:42;100657.59;;;19.86;52.10
22283;BME280;11310;51.528;21.204;2023-04-08T12:55:10;100654.19;;;19.84;54.70
22283;BME280;11310;51.528;21.204;2023-04-08T12:57:39;100658.09;;;19.67;55.02
22283;BME280;11310;51.528;21.204;2023-04-08T13:00:09;100648.09;;;19.22;55.32